IBE0279 LEGR-LEMD
Flight info
| Callsign | IBE0279 |
|---|---|
| Flight time | 0h 40m |
| Altitude | 30000 |
| Route | VIBAS N865 MORAL |
| Aircraft | A20N/M-SDE2E3FGHIRWXY/LB1 |
Departure
| Time | 2026-05-05 10:45 |
|---|---|
| Airport | F.G.L. Airport Granada-Jaén Airport (LEGR) |
Arrival
| Time | 2026-05-05 11:26 |
|---|---|
| Airport | Adolfo Suárez Madrid–Barajas Airport (LEMD) |
| Time | Latitude | Longitude | Altitude | Speed | Heading |
|---|---|---|---|---|---|
| 2026-05-05 10:34 | 37.18564 | -3.77703 | 1851 ft | 0 kts | 270° |
| 2026-05-05 10:41 | 37.18564 | -3.77719 | 1860 ft | 4 kts | 269° |
| 2026-05-05 10:41 | 37.18565 | -3.77752 | 1860 ft | 7 kts | 281° |
| 2026-05-05 10:42 | 37.18659 | -3.77920 | 1859 ft | 20 kts | 305° |
| 2026-05-05 10:42 | 37.18701 | -3.78105 | 1858 ft | 24 kts | 271° |
| 2026-05-05 10:42 | 37.18700 | -3.78324 | 1857 ft | 26 kts | 269° |
| 2026-05-05 10:43 | 37.18699 | -3.78563 | 1856 ft | 28 kts | 269° |
| 2026-05-05 10:43 | 37.18698 | -3.78811 | 1854 ft | 29 kts | 270° |
| 2026-05-05 10:43 | 37.18698 | -3.79071 | 1853 ft | 30 kts | 268° |
| 2026-05-05 10:43 | 37.18727 | -3.79298 | 1852 ft | 20 kts | 319° |
| 2026-05-05 10:44 | 37.18763 | -3.79323 | 1851 ft | 0 kts | 346° |
| 2026-05-05 10:44 | 37.18783 | -3.79326 | 1851 ft | 8 kts | 355° |
| 2026-05-05 10:44 | 37.18855 | -3.79257 | 1851 ft | 29 kts | 79° |
| 2026-05-05 10:44 | 37.18864 | -3.78720 | 1857 ft | 90 kts | 90° |
| 2026-05-05 10:45 | 37.18875 | -3.77734 | 1858 ft | 133 kts | 88° |
| 2026-05-05 10:45 | 37.18863 | -3.76476 | 2146 ft | 143 kts | 86° |
| 2026-05-05 10:45 | 37.18893 | -3.75291 | 2817 ft | 132 kts | 74° |
| 2026-05-05 10:45 | 37.18947 | -3.73993 | 2942 ft | 167 kts | 86° |
| 2026-05-05 10:46 | 37.18835 | -3.72423 | 3225 ft | 191 kts | 87° |
| 2026-05-05 10:46 | 37.18833 | -3.70738 | 3840 ft | 200 kts | 83° |
| 2026-05-05 10:46 | 37.18950 | -3.68927 | 4244 ft | 218 kts | 80° |
| 2026-05-05 10:46 | 37.19116 | -3.66945 | 4655 ft | 242 kts | 78° |
| 2026-05-05 10:47 | 37.19857 | -3.65033 | 5300 ft | 250 kts | 37° |
| 2026-05-05 10:47 | 37.21307 | -3.63794 | 6289 ft | 252 kts | 22° |
| 2026-05-05 10:47 | 37.22998 | -3.63269 | 7375 ft | 252 kts | 2° |
| 2026-05-05 10:47 | 37.24761 | -3.63307 | 8313 ft | 262 kts | 354° |
| 2026-05-05 10:48 | 37.26664 | -3.63369 | 8998 ft | 283 kts | 357° |
| 2026-05-05 10:48 | 37.28676 | -3.63351 | 9947 ft | 291 kts | 357° |
| 2026-05-05 10:48 | 37.30723 | -3.63307 | 10634 ft | 308 kts | 357° |
| 2026-05-05 10:48 | 37.32953 | -3.63257 | 11046 ft | 333 kts | 357° |
| 2026-05-05 10:49 | 37.35363 | -3.63245 | 11479 ft | 351 kts | 350° |
| 2026-05-05 10:49 | 37.37798 | -3.63319 | 12392 ft | 353 kts | 351° |
| 2026-05-05 10:49 | 37.40263 | -3.63355 | 13284 ft | 359 kts | 355° |
| 2026-05-05 10:49 | 37.42795 | -3.63291 | 14120 ft | 365 kts | 354° |
| 2026-05-05 10:50 | 37.45360 | -3.63223 | 14936 ft | 369 kts | 355° |
| 2026-05-05 10:50 | 37.47945 | -3.63160 | 15745 ft | 374 kts | 356° |
| 2026-05-05 10:50 | 37.50533 | -3.63098 | 16521 ft | 378 kts | 355° |
| 2026-05-05 10:50 | 37.53185 | -3.63038 | 17324 ft | 382 kts | 355° |
| 2026-05-05 10:51 | 37.55858 | -3.62974 | 18074 ft | 387 kts | 353° |
| 2026-05-05 10:51 | 37.58555 | -3.62991 | 18767 ft | 391 kts | 353° |
| 2026-05-05 10:51 | 37.61284 | -3.62974 | 19471 ft | 394 kts | 354° |
| 2026-05-05 10:51 | 37.64044 | -3.62937 | 20080 ft | 398 kts | 355° |
| 2026-05-05 10:52 | 37.66830 | -3.62870 | 20757 ft | 401 kts | 355° |
| 2026-05-05 10:52 | 37.69598 | -3.62819 | 21393 ft | 406 kts | 354° |
| 2026-05-05 10:52 | 37.72452 | -3.62783 | 22023 ft | 411 kts | 354° |
| 2026-05-05 10:52 | 37.75328 | -3.62739 | 22724 ft | 414 kts | 354° |
| 2026-05-05 10:53 | 37.78229 | -3.62702 | 23354 ft | 419 kts | 354° |
| 2026-05-05 10:53 | 37.81164 | -3.62675 | 23926 ft | 422 kts | 353° |
| 2026-05-05 10:53 | 37.84085 | -3.62668 | 24451 ft | 425 kts | 352° |
| 2026-05-05 10:53 | 37.87059 | -3.62674 | 24989 ft | 429 kts | 353° |
| 2026-05-05 10:54 | 37.90073 | -3.62665 | 25478 ft | 433 kts | 352° |
| 2026-05-05 10:54 | 37.93093 | -3.62652 | 26019 ft | 435 kts | 352° |
| 2026-05-05 10:54 | 37.96101 | -3.62637 | 26493 ft | 439 kts | 352° |
| 2026-05-05 10:54 | 37.99174 | -3.62617 | 26962 ft | 443 kts | 352° |
| 2026-05-05 10:55 | 38.02271 | -3.62575 | 27434 ft | 447 kts | 353° |
| 2026-05-05 10:55 | 38.05408 | -3.62520 | 27882 ft | 450 kts | 352° |
| 2026-05-05 10:55 | 38.08562 | -3.62480 | 28255 ft | 454 kts | 352° |
| 2026-05-05 10:55 | 38.11699 | -3.62444 | 28746 ft | 456 kts | 352° |
| 2026-05-05 10:56 | 38.14894 | -3.62412 | 29164 ft | 458 kts | 352° |
| 2026-05-05 10:56 | 38.18075 | -3.62363 | 29557 ft | 462 kts | 352° |
| 2026-05-05 10:56 | 38.21313 | -3.62277 | 29901 ft | 466 kts | 352° |
| 2026-05-05 10:57 | 38.27803 | -3.62083 | 29996 ft | 467 kts | 352° |
| 2026-05-05 10:57 | 38.34308 | -3.62014 | 29991 ft | 465 kts | 347° |
| 2026-05-05 10:58 | 38.40778 | -3.61884 | 29997 ft | 468 kts | 353° |
| 2026-05-05 10:58 | 38.47271 | -3.61612 | 29992 ft | 468 kts | 352° |
| 2026-05-05 10:59 | 38.53794 | -3.61421 | 29995 ft | 467 kts | 351° |
| 2026-05-05 10:59 | 38.60273 | -3.61250 | 29992 ft | 468 kts | 351° |
| 2026-05-05 11:00 | 38.66791 | -3.61065 | 29993 ft | 468 kts | 351° |
| 2026-05-05 11:00 | 38.73304 | -3.60877 | 29994 ft | 469 kts | 351° |
| 2026-05-05 11:01 | 38.79877 | -3.60698 | 29994 ft | 470 kts | 351° |
| 2026-05-05 11:01 | 38.86406 | -3.60525 | 29940 ft | 471 kts | 351° |
| 2026-05-05 11:01 | 38.89658 | -3.60447 | 29686 ft | 469 kts | 351° |
| 2026-05-05 11:02 | 38.92927 | -3.60357 | 29408 ft | 466 kts | 351° |
| 2026-05-05 11:02 | 38.96165 | -3.60265 | 29109 ft | 463 kts | 351° |
| 2026-05-05 11:02 | 38.99350 | -3.60178 | 28562 ft | 462 kts | 351° |
| 2026-05-05 11:02 | 39.02539 | -3.60091 | 28233 ft | 455 kts | 351° |
| 2026-05-05 11:03 | 39.05710 | -3.60004 | 27971 ft | 454 kts | 351° |
| 2026-05-05 11:03 | 39.08845 | -3.59926 | 27712 ft | 454 kts | 351° |
| 2026-05-05 11:03 | 39.12024 | -3.59855 | 27447 ft | 452 kts | 351° |
| 2026-05-05 11:03 | 39.15132 | -3.59793 | 27196 ft | 449 kts | 351° |
| 2026-05-05 11:04 | 39.18201 | -3.60182 | 26941 ft | 431 kts | 337° |
| 2026-05-05 11:04 | 39.20972 | -3.61339 | 26478 ft | 416 kts | 326° |
| 2026-05-05 11:04 | 39.23409 | -3.63207 | 25964 ft | 394 kts | 313° |
| 2026-05-05 11:04 | 39.25526 | -3.65385 | 25699 ft | 384 kts | 312° |
| 2026-05-05 11:05 | 39.27591 | -3.67513 | 25332 ft | 384 kts | 312° |
| 2026-05-05 11:05 | 39.29683 | -3.69673 | 24883 ft | 381 kts | 312° |
| 2026-05-05 11:05 | 39.31709 | -3.71756 | 24674 ft | 369 kts | 312° |
| 2026-05-05 11:05 | 39.33712 | -3.73822 | 24176 ft | 365 kts | 311° |
| 2026-05-05 11:06 | 39.35676 | -3.75859 | 23631 ft | 363 kts | 311° |
| 2026-05-05 11:06 | 39.37640 | -3.77898 | 23060 ft | 359 kts | 311° |
| 2026-05-05 11:06 | 39.39588 | -3.79921 | 22427 ft | 356 kts | 312° |
| 2026-05-05 11:06 | 39.41507 | -3.81915 | 21813 ft | 354 kts | 312° |
| 2026-05-05 11:07 | 39.43385 | -3.83868 | 21218 ft | 352 kts | 312° |
| 2026-05-05 11:07 | 39.45326 | -3.85889 | 20626 ft | 350 kts | 313° |
| 2026-05-05 11:07 | 39.47201 | -3.87841 | 20084 ft | 347 kts | 313° |
| 2026-05-05 11:07 | 39.49078 | -3.89793 | 19499 ft | 346 kts | 313° |
| 2026-05-05 11:08 | 39.50950 | -3.91746 | 18968 ft | 343 kts | 313° |
| 2026-05-05 11:08 | 39.52808 | -3.93684 | 18466 ft | 342 kts | 314° |
| 2026-05-05 11:08 | 39.54671 | -3.95630 | 17915 ft | 340 kts | 314° |
| 2026-05-05 11:08 | 39.56489 | -3.97529 | 17425 ft | 337 kts | 314° |
| 2026-05-05 11:09 | 39.58306 | -3.99427 | 16939 ft | 337 kts | 315° |
| 2026-05-05 11:09 | 39.60130 | -4.01336 | 16426 ft | 335 kts | 315° |
| 2026-05-05 11:09 | 39.61944 | -4.03233 | 15937 ft | 331 kts | 315° |
| 2026-05-05 11:09 | 39.63720 | -4.05093 | 15458 ft | 331 kts | 316° |
| 2026-05-05 11:10 | 39.65554 | -4.06920 | 15085 ft | 332 kts | 324° |
| 2026-05-05 11:10 | 39.67746 | -4.07977 | 14824 ft | 343 kts | 346° |
| 2026-05-05 11:10 | 39.70099 | -4.07937 | 14560 ft | 352 kts | 7° |
| 2026-05-05 11:10 | 39.72435 | -4.06738 | 14290 ft | 360 kts | 28° |
| 2026-05-05 11:11 | 39.74290 | -4.04595 | 14032 ft | 364 kts | 47° |
| 2026-05-05 11:11 | 39.75849 | -4.02004 | 13774 ft | 362 kts | 50° |
| 2026-05-05 11:11 | 39.77395 | -3.99414 | 13480 ft | 359 kts | 49° |
| 2026-05-05 11:11 | 39.78987 | -3.96971 | 13186 ft | 356 kts | 46° |
| 2026-05-05 11:12 | 39.80661 | -3.94588 | 12892 ft | 353 kts | 44° |
| 2026-05-05 11:12 | 39.82344 | -3.92301 | 12608 ft | 351 kts | 43° |
| 2026-05-05 11:12 | 39.84052 | -3.90026 | 12327 ft | 348 kts | 43° |
| 2026-05-05 11:12 | 39.85735 | -3.87798 | 12036 ft | 346 kts | 43° |
| 2026-05-05 11:13 | 39.87427 | -3.85561 | 11745 ft | 344 kts | 43° |
| 2026-05-05 11:13 | 39.89085 | -3.83363 | 11478 ft | 342 kts | 43° |
| 2026-05-05 11:13 | 39.90748 | -3.81153 | 11200 ft | 339 kts | 43° |
| 2026-05-05 11:13 | 39.92379 | -3.78982 | 10930 ft | 338 kts | 44° |
| 2026-05-05 11:14 | 39.94021 | -3.76795 | 10659 ft | 335 kts | 44° |
| 2026-05-05 11:14 | 39.95658 | -3.74611 | 10389 ft | 334 kts | 44° |
| 2026-05-05 11:14 | 39.97263 | -3.72472 | 10129 ft | 332 kts | 42° |
| 2026-05-05 11:14 | 39.98903 | -3.70331 | 9853 ft | 331 kts | 44° |
| 2026-05-05 11:15 | 40.00499 | -3.68204 | 9563 ft | 329 kts | 44° |
| 2026-05-05 11:15 | 40.02101 | -3.66050 | 9268 ft | 328 kts | 44° |
| 2026-05-05 11:15 | 40.03669 | -3.63922 | 8985 ft | 327 kts | 44° |
| 2026-05-05 11:15 | 40.05243 | -3.61790 | 8698 ft | 326 kts | 44° |
| 2026-05-05 11:16 | 40.06817 | -3.59666 | 8417 ft | 325 kts | 44° |
| 2026-05-05 11:16 | 40.08397 | -3.57542 | 8121 ft | 323 kts | 44° |
| 2026-05-05 11:16 | 40.09970 | -3.55444 | 7845 ft | 323 kts | 43° |
| 2026-05-05 11:16 | 40.11561 | -3.53384 | 7564 ft | 320 kts | 41° |
| 2026-05-05 11:17 | 40.13128 | -3.51366 | 7297 ft | 320 kts | 42° |
| 2026-05-05 11:17 | 40.14698 | -3.49286 | 7024 ft | 319 kts | 44° |
| 2026-05-05 11:17 | 40.16242 | -3.47169 | 6755 ft | 319 kts | 45° |
| 2026-05-05 11:17 | 40.17546 | -3.45454 | 6530 ft | 318 kts | 40° |
| 2026-05-05 11:18 | 40.19202 | -3.43488 | 6259 ft | 319 kts | 40° |
| 2026-05-05 11:18 | 40.20841 | -3.41633 | 5955 ft | 306 kts | 34° |
| 2026-05-05 11:18 | 40.22612 | -3.40246 | 5650 ft | 286 kts | 20° |
| 2026-05-05 11:18 | 40.24367 | -3.39237 | 5309 ft | 273 kts | 21° |
| 2026-05-05 11:19 | 40.26152 | -3.38643 | 5048 ft | 247 kts | 0° |
| 2026-05-05 11:19 | 40.27729 | -3.38765 | 4986 ft | 208 kts | 350° |
| 2026-05-05 11:19 | 40.29100 | -3.38973 | 5033 ft | 197 kts | 347° |
| 2026-05-05 11:19 | 40.30357 | -3.39502 | 4994 ft | 187 kts | 331° |
| 2026-05-05 11:20 | 40.31404 | -3.40308 | 4995 ft | 166 kts | 322° |
| 2026-05-05 11:20 | 40.32327 | -3.41199 | 5001 ft | 166 kts | 319° |
| 2026-05-05 11:20 | 40.33221 | -3.42113 | 4996 ft | 167 kts | 319° |
| 2026-05-05 11:20 | 40.34143 | -3.43045 | 4966 ft | 168 kts | 319° |
| 2026-05-05 11:21 | 40.35057 | -3.43971 | 4785 ft | 162 kts | 319° |
| 2026-05-05 11:21 | 40.35919 | -3.44844 | 4566 ft | 153 kts | 318° |
| 2026-05-05 11:21 | 40.36744 | -3.45680 | 4375 ft | 145 kts | 318° |
| 2026-05-05 11:21 | 40.37527 | -3.46476 | 4193 ft | 141 kts | 318° |
| 2026-05-05 11:22 | 40.38298 | -3.47256 | 3990 ft | 139 kts | 318° |
| 2026-05-05 11:22 | 40.39057 | -3.48028 | 3808 ft | 140 kts | 318° |
| 2026-05-05 11:22 | 40.39823 | -3.48805 | 3618 ft | 135 kts | 319° |
| 2026-05-05 11:22 | 40.40337 | -3.49324 | 3505 ft | 130 kts | 319° |
| 2026-05-05 11:23 | 40.40984 | -3.49982 | 3326 ft | 123 kts | 319° |
| 2026-05-05 11:23 | 40.41686 | -3.50701 | 3165 ft | 134 kts | 318° |
| 2026-05-05 11:23 | 40.42430 | -3.51452 | 2963 ft | 133 kts | 319° |
| 2026-05-05 11:23 | 40.43167 | -3.52199 | 2777 ft | 135 kts | 319° |
| 2026-05-05 11:24 | 40.43907 | -3.52954 | 2587 ft | 137 kts | 319° |
| 2026-05-05 11:24 | 40.44662 | -3.53723 | 2409 ft | 137 kts | 318° |
| 2026-05-05 11:24 | 40.45165 | -3.54232 | 2276 ft | 139 kts | 319° |
| 2026-05-05 11:24 | 40.46172 | -3.55257 | 2040 ft | 137 kts | 317° |
| 2026-05-05 11:25 | 40.46882 | -3.55987 | 1964 ft | 105 kts | 322° |
| 2026-05-05 11:25 | 40.47201 | -3.56298 | 1968 ft | 68 kts | 322° |
| 2026-05-05 11:25 | 40.47553 | -3.56648 | 1979 ft | 61 kts | 323° |
| 2026-05-05 11:25 | 40.47880 | -3.56977 | 1985 ft | 57 kts | 321° |
| 2026-05-05 11:26 | 40.48184 | -3.57280 | 1994 ft | 53 kts | 322° |
| 2026-05-05 11:26 | 40.48421 | -3.57561 | 2002 ft | 29 kts | 300° |
| 2026-05-05 11:26 | 40.48467 | -3.57688 | 2003 ft | 1 kts | 296° |
| 2026-05-05 11:26 | 40.48484 | -3.57743 | 2001 ft | 12 kts | 284° |
| 2026-05-05 11:27 | 40.48505 | -3.57874 | 2002 ft | 17 kts | 286° |
| 2026-05-05 11:27 | 40.48515 | -3.58036 | 2001 ft | 20 kts | 263° |
| 2026-05-05 11:27 | 40.48506 | -3.58222 | 1999 ft | 21 kts | 276° |
| 2026-05-05 11:27 | 40.48516 | -3.58425 | 1997 ft | 24 kts | 270° |
| 2026-05-05 11:28 | 40.48513 | -3.58649 | 1995 ft | 26 kts | 266° |
| 2026-05-05 11:28 | 40.48583 | -3.58812 | 1994 ft | 24 kts | 349° |
| 2026-05-05 11:28 | 40.48748 | -3.58857 | 1992 ft | 24 kts | 313° |
| 2026-05-05 11:28 | 40.48768 | -3.58986 | 1992 ft | 0 kts | 270° |